Time;durP1;ratioP1;P1;durP2;ratioP2;P2;SDS_P1;SDS_P2;PMS_P1;PMS_P2;Temp;Humidity;BMP_temperature;BMP_pressure;BME280_temperature;BME280_humidity;BME280_pressure;Samples;Min_cycle;Max_cycle;Signal;HPM_P1;HPM_P2
2021/09/17 00:00:28;;;;;;;;;;;16.40;99.90;;;;;;1832409;77;20179;-69
2021/09/17 00:02:51;;;;;;;;;;;16.40;99.90;;;;;;1829020;77;20182;-69
2021/09/17 00:05:18;;;;;;;;;;;16.30;99.90;;;;;;1844828;77;20192;-69
2021/09/17 00:07:45;;;;;;;;;;;16.30;99.90;;;;;;1888865;75;20465;-69
2021/09/17 00:10:12;;;;;;;;;;;16.40;99.90;;;;;;1885857;75;20118;-69
2021/09/17 00:12:39;;;;;;;;;;;16.30;99.90;;;;;;1898726;74;20170;-70
2021/09/17 00:15:06;;;;;;;;;;;16.20;99.90;;;;;;1903704;74;20170;-69
2021/09/17 00:17:33;;;;;;;;;;;16.40;99.90;;;;;;1906393;74;20177;-69
2021/09/17 00:20:00;;;;;;;;;;;16.50;99.90;;;;;;1904695;74;20148;-69
2021/09/17 00:22:26;;;;;;;;;;;16.50;99.90;;;;;;1900952;74;20177;-69
2021/09/17 00:24:53;;;;;;;;;;;16.50;99.90;;;;;;1889915;74;20126;-70
2021/09/17 00:27:20;;;;;;;;;;;16.40;99.90;;;;;;1880767;74;20129;-69
2021/09/17 00:29:47;;;;;;;;;;;16.50;99.90;;;;;;1906600;75;20246;-70
2021/09/17 00:32:14;;;;;;;;;;;16.50;99.90;;;;;;1904337;74;20122;-70
2021/09/17 00:34:40;;;;;;;;;;;16.50;99.90;;;;;;1876065;75;20503;-72
2021/09/17 00:37:08;;;;;;;;;;;16.50;99.90;;;;;;1887944;74;20158;-69
2021/09/17 00:39:35;;;;;;;;;;;16.50;99.90;;;;;;1885370;75;20338;-69
2021/09/17 00:42:01;;;;;;;;;;;16.50;99.90;;;;;;1884975;74;20190;-69
2021/09/17 00:44:29;;;;;;;;;;;16.50;99.90;;;;;;1885252;74;20126;-69
2021/09/17 00:46:56;;;;;;;;;;;16.50;99.90;;;;;;1903176;74;20221;-70
2021/09/17 00:49:23;;;;;;;;;;;16.40;99.90;;;;;;1889084;74;20169;-69
2021/09/17 00:51:51;;;;;;;;;;;16.40;99.90;;;;;;1888369;74;20204;-70
2021/09/17 00:54:18;;;;;;;;;;;16.40;99.90;;;;;;1904193;74;20293;-69
2021/09/17 00:56:45;;;;;;;;;;;16.40;99.90;;;;;;1891122;74;20185;-69
2021/09/17 00:59:17;;;;;;;;;;;16.30;99.90;;;;;;1903915;75;20174;-69
2021/09/17 01:01:44;;;;;;;;;;;16.30;99.90;;;;;;1892884;74;20240;-69
2021/09/17 01:04:11;;;;;;;;;;;16.30;99.90;;;;;;1893711;74;20196;-69
2021/09/17 01:06:38;;;;;;;;;;;16.30;99.90;;;;;;1891917;74;20113;-72
2021/09/17 01:09:06;;;;;;;;;;;16.30;99.90;;;;;;1901982;74;20475;-71
2021/09/17 01:11:33;;;;;;;;;;;16.30;99.90;;;;;;1924358;74;20409;-72
2021/09/17 01:14:01;;;;;;;;;;;16.20;99.90;;;;;;1899584;74;20230;-72
2021/09/17 01:16:28;;;;;;;;;;;16.30;99.90;;;;;;1904456;75;20470;-71
2021/09/17 01:18:55;;;;;;;;;;;16.20;99.90;;;;;;1899825;74;20223;-69
2021/09/17 01:21:22;;;;;;;;;;;16.20;99.90;;;;;;1914488;75;20192;-70
2021/09/17 01:23:49;;;;;;;;;;;16.20;99.90;;;;;;1890265;74;20232;-69
2021/09/17 01:26:17;;;;;;;;;;;16.10;99.90;;;;;;1891022;74;20173;-69
2021/09/17 01:28:44;;;;;;;;;;;16.00;99.90;;;;;;1885080;74;20177;-70
2021/09/17 01:31:11;;;;;;;;;;;16.10;99.90;;;;;;1904654;75;20149;-69
2021/09/17 01:33:37;;;;;;;;;;;16.10;99.90;;;;;;1903501;74;20414;-72
2021/09/17 01:36:06;;;;;;;;;;;16.10;99.90;;;;;;1891743;74;20179;-72
2021/09/17 01:38:34;;;;;;;;;;;16.10;99.90;;;;;;1897841;74;20869;-69
2021/09/17 01:41:01;;;;;;;;;;;16.10;99.90;;;;;;1887519;74;20271;-69
2021/09/17 01:43:28;;;;;;;;;;;16.10;99.90;;;;;;1902684;74;20398;-70
2021/09/17 01:45:55;;;;;;;;;;;16.20;99.90;;;;;;1905159;74;20578;-70
2021/09/17 01:48:21;;;;;;;;;;;16.20;99.90;;;;;;1904382;74;20178;-69
2021/09/17 01:50:48;;;;;;;;;;;16.10;99.90;;;;;;1910093;74;20155;-69
2021/09/17 01:53:15;;;;;;;;;;;16.00;99.90;;;;;;1896824;74;20152;-69
2021/09/17 01:55:42;;;;;;;;;;;16.00;99.90;;;;;;1896675;74;20771;-70
2021/09/17 01:58:09;;;;;;;;;;;16.00;99.90;;;;;;1879715;75;20192;-70
2021/09/17 02:00:35;;;;;;;;;;;15.90;99.90;;;;;;1901239;74;20176;-70
2021/09/17 02:03:02;;;;;;;;;;;15.90;99.90;;;;;;1885645;74;20909;-70
2021/09/17 02:05:29;;;;;;;;;;;15.90;99.90;;;;;;1886984;74;20181;-70
2021/09/17 02:07:57;;;;;;;;;;;15.90;99.90;;;;;;1901181;74;20234;-69
2021/09/17 02:10:24;;;;;;;;;;;15.90;99.90;;;;;;1904120;75;20170;-70
2021/09/17 02:12:51;;;;;;;;;;;15.90;99.90;;;;;;1905150;74;20291;-69
2021/09/17 02:15:18;;;;;;;;;;;15.90;99.90;;;;;;1905534;74;20156;-70
2021/09/17 02:17:45;;;;;;;;;;;15.90;99.90;;;;;;1891477;74;20236;-69
2021/09/17 02:20:12;;;;;;;;;;;15.90;99.90;;;;;;1895768;74;20185;-69
2021/09/17 02:22:39;;;;;;;;;;;15.90;99.90;;;;;;1885595;74;20166;-70
2021/09/17 02:25:06;;;;;;;;;;;15.80;99.90;;;;;;1892478;74;20489;-69
2021/09/17 02:27:33;;;;;;;;;;;15.80;99.90;;;;;;1885512;74;20122;-69
2021/09/17 02:29:59;;;;;;;;;;;15.90;99.90;;;;;;1903563;74;20191;-70
2021/09/17 02:32:26;;;;;;;;;;;15.80;99.90;;;;;;1895964;74;20130;-70
2021/09/17 02:34:53;;;;;;;;;;;15.80;99.90;;;;;;1885735;74;20756;-69
2021/09/17 02:37:20;;;;;;;;;;;15.80;99.90;;;;;;1891756;74;20158;-69
2021/09/17 02:39:46;;;;;;;;;;;15.90;99.90;;;;;;1903338;74;20115;-69
2021/09/17 02:42:13;;;;;;;;;;;15.80;99.90;;;;;;1888274;74;20169;-69
2021/09/17 02:44:40;;;;;;;;;;;15.90;99.90;;;;;;1904293;75;20177;-69
2021/09/17 02:47:07;;;;;;;;;;;15.90;99.90;;;;;;1903409;74;20208;-70
2021/09/17 02:49:34;;;;;;;;;;;15.90;99.90;;;;;;1892000;74;20475;-70
2021/09/17 02:52:01;;;;;;;;;;;16.00;99.90;;;;;;1904036;74;20278;-70
2021/09/17 02:54:28;;;;;;;;;;;15.90;99.90;;;;;;1886562;74;20200;-69
2021/09/17 02:56:55;;;;;;;;;;;15.90;99.90;;;;;;1891811;74;20401;-69
2021/09/17 02:59:22;;;;;;;;;;;15.90;99.90;;;;;;1893628;74;20150;-69
2021/09/17 03:01:48;;;;;;;;;;;15.90;99.90;;;;;;1877737;74;20180;-70
2021/09/17 03:04:15;;;;;;;;;;;15.90;99.90;;;;;;1900675;74;20235;-69
2021/09/17 03:06:42;;;;;;;;;;;15.90;99.90;;;;;;1901370;74;20212;-69
2021/09/17 03:09:09;;;;;;;;;;;15.90;99.90;;;;;;1912810;75;20141;-70
2021/09/17 03:11:36;;;;;;;;;;;15.90;99.90;;;;;;1897209;74;20189;-70
2021/09/17 03:14:02;;;;;;;;;;;15.80;99.90;;;;;;1888758;74;20173;-69
2021/09/17 03:16:29;;;;;;;;;;;15.80;99.90;;;;;;1891995;75;20165;-70
2021/09/17 03:18:56;;;;;;;;;;;15.80;99.90;;;;;;1904077;74;20157;-69
2021/09/17 03:21:23;;;;;;;;;;;15.80;99.90;;;;;;1893497;74;20187;-69
2021/09/17 03:23:50;;;;;;;;;;;15.80;99.90;;;;;;1887106;74;20141;-69
2021/09/17 03:26:16;;;;;;;;;;;15.70;99.90;;;;;;1903696;75;20497;-70
2021/09/17 03:28:43;;;;;;;;;;;15.80;99.90;;;;;;1883897;74;20162;-70
2021/09/17 03:31:10;;;;;;;;;;;15.70;99.90;;;;;;1896128;74;20430;-70
2021/09/17 03:33:37;;;;;;;;;;;15.80;99.90;;;;;;1895816;74;20154;-70
2021/09/17 03:36:04;;;;;;;;;;;15.80;99.90;;;;;;1902512;75;20491;-70
2021/09/17 03:38:31;;;;;;;;;;;15.70;99.90;;;;;;1902456;74;20162;-70
2021/09/17 03:40:58;;;;;;;;;;;15.60;99.90;;;;;;1896672;74;20183;-70
2021/09/17 03:43:25;;;;;;;;;;;15.60;99.90;;;;;;1899921;74;20169;-70
2021/09/17 03:45:52;;;;;;;;;;;15.70;99.90;;;;;;1895136;74;20481;-70
2021/09/17 03:48:18;;;;;;;;;;;15.70;99.90;;;;;;1878654;74;20121;-70
2021/09/17 03:50:45;;;;;;;;;;;15.70;99.90;;;;;;1890474;74;20467;-70
2021/09/17 03:53:12;;;;;;;;;;;15.70;99.90;;;;;;1882313;74;20227;-70
2021/09/17 03:55:39;;;;;;;;;;;15.70;99.90;;;;;;1896297;74;20833;-69
2021/09/17 03:58:06;;;;;;;;;;;15.60;99.90;;;;;;1893893;74;20470;-70
2021/09/17 04:00:34;;;;;;;;;;;15.60;99.90;;;;;;1889927;74;20200;-70
2021/09/17 04:03:00;;;;;;;;;;;15.60;99.90;;;;;;1886733;74;20160;-70
2021/09/17 04:05:27;;;;;;;;;;;15.60;99.90;;;;;;1878571;74;20498;-70
2021/09/17 04:07:54;;;;;;;;;;;15.50;99.90;;;;;;1888797;74;20220;-70
2021/09/17 04:10:21;;;;;;;;;;;15.60;99.90;;;;;;1884239;74;20539;-69
2021/09/17 04:12:48;;;;;;;;;;;15.50;99.90;;;;;;1880469;74;20514;-69
2021/09/17 04:15:15;;;;;;;;;;;15.50;99.90;;;;;;1884264;74;20165;-69
2021/09/17 04:17:42;;;;;;;;;;;15.50;99.90;;;;;;1885594;74;20157;-70
2021/09/17 04:20:09;;;;;;;;;;;15.40;99.90;;;;;;1905014;74;20120;-69
2021/09/17 04:22:36;;;;;;;;;;;15.40;99.90;;;;;;1888691;74;20166;-69
2021/09/17 04:25:04;;;;;;;;;;;15.40;99.90;;;;;;1890318;74;20134;-70
2021/09/17 04:27:31;;;;;;;;;;;15.40;99.90;;;;;;1888106;74;20196;-69
2021/09/17 04:29:58;;;;;;;;;;;15.40;99.90;;;;;;1904587;75;20180;-70
2021/09/17 04:32:24;;;;;;;;;;;15.50;99.90;;;;;;1896220;74;20189;-69
2021/09/17 04:34:51;;;;;;;;;;;15.40;99.90;;;;;;1885663;76;20118;-69
2021/09/17 04:37:18;;;;;;;;;;;15.40;99.90;;;;;;1894649;74;20174;-69
2021/09/17 04:39:45;;;;;;;;;;;15.40;99.90;;;;;;1885406;76;20173;-69
2021/09/17 04:42:12;;;;;;;;;;;15.40;99.90;;;;;;1885384;74;20118;-69
2021/09/17 04:44:39;;;;;;;;;;;15.40;99.90;;;;;;1893699;75;20169;-69
2021/09/17 04:47:05;;;;;;;;;;;15.30;99.90;;;;;;1889732;75;20538;-69
2021/09/17 04:49:32;;;;;;;;;;;15.30;99.90;;;;;;1889120;74;20213;-69
2021/09/17 04:51:59;;;;;;;;;;;15.30;99.90;;;;;;1896751;74;20177;-70
2021/09/17 04:54:26;;;;;;;;;;;15.30;99.90;;;;;;1890406;74;20132;-71
2021/09/17 04:56:53;;;;;;;;;;;15.20;99.90;;;;;;1887850;74;20177;-70
2021/09/17 04:59:20;;;;;;;;;;;15.40;99.90;;;;;;1900021;74;20132;-71
2021/09/17 05:01:47;;;;;;;;;;;15.30;99.90;;;;;;1904460;74;20495;-70
2021/09/17 05:04:14;;;;;;;;;;;15.30;99.90;;;;;;1897391;74;20503;-69
2021/09/17 05:06:41;;;;;;;;;;;15.40;99.90;;;;;;1892733;74;20225;-70
2021/09/17 05:09:08;;;;;;;;;;;15.40;99.90;;;;;;1892505;74;20188;-70
2021/09/17 05:11:34;;;;;;;;;;;15.30;99.90;;;;;;1896817;74;20443;-71
2021/09/17 05:14:01;;;;;;;;;;;15.40;99.90;;;;;;1903321;74;20244;-70
2021/09/17 05:16:32;;;;;;;;;;;15.50;99.90;;;;;;1897847;74;20388;-70
2021/09/17 05:18:56;;;;;;;;;;;15.30;99.90;;;;;;1887430;74;20111;-69
2021/09/17 05:21:23;;;;;;;;;;;15.30;99.90;;;;;;1892936;74;20165;-69
2021/09/17 05:23:50;;;;;;;;;;;15.30;99.90;;;;;;1899740;74;20118;-70
2021/09/17 05:26:17;;;;;;;;;;;15.40;99.90;;;;;;1900314;74;20153;-69
2021/09/17 05:28:44;;;;;;;;;;;15.30;99.90;;;;;;1908096;74;20175;-70
2021/09/17 05:31:10;;;;;;;;;;;15.30;99.90;;;;;;1893283;74;20251;-70
2021/09/17 05:33:37;;;;;;;;;;;15.30;99.90;;;;;;1902258;74;20149;-70
2021/09/17 05:36:04;;;;;;;;;;;15.30;99.90;;;;;;1894750;74;20364;-69
2021/09/17 05:38:31;;;;;;;;;;;15.20;99.90;;;;;;1901730;74;20389;-70
2021/09/17 05:40:58;;;;;;;;;;;15.20;99.90;;;;;;1907709;75;20977;-69
2021/09/17 05:43:24;;;;;;;;;;;15.20;99.90;;;;;;1887843;74;20197;-69
2021/09/17 05:45:51;;;;;;;;;;;15.20;99.90;;;;;;1890242;74;20396;-71
2021/09/17 05:48:18;;;;;;;;;;;15.30;99.90;;;;;;1895759;74;20188;-71
2021/09/17 05:50:45;;;;;;;;;;;15.30;99.90;;;;;;1895226;74;20406;-71
2021/09/17 05:53:12;;;;;;;;;;;15.30;99.90;;;;;;1892895;75;20170;-71
2021/09/17 05:55:39;;;;;;;;;;;15.30;99.90;;;;;;1897324;74;20115;-71
2021/09/17 05:58:06;;;;;;;;;;;15.40;99.90;;;;;;1887931;74;20812;-71
2021/09/17 06:00:33;;;;;;;;;;;15.40;99.90;;;;;;1888121;74;20165;-72
2021/09/17 06:02:59;;;;;;;;;;;15.50;99.90;;;;;;1895047;74;20121;-70
2021/09/17 06:05:26;;;;;;;;;;;15.50;99.90;;;;;;1892098;74;20173;-71
2021/09/17 06:07:53;;;;;;;;;;;15.60;99.90;;;;;;1904231;75;20165;-71
2021/09/17 06:10:20;;;;;;;;;;;15.60;99.90;;;;;;1903187;74;20156;-71
2021/09/17 06:12:47;;;;;;;;;;;15.60;99.90;;;;;;1907245;74;20247;-71
2021/09/17 06:15:16;;;;;;;;;;;15.60;99.90;;;;;;1893233;75;20128;-71
2021/09/17 06:17:43;;;;;;;;;;;15.60;99.90;;;;;;1886251;75;20453;-71
2021/09/17 06:20:11;;;;;;;;;;;15.60;99.90;;;;;;1899562;75;20140;-72
2021/09/17 06:22:39;;;;;;;;;;;15.70;99.90;;;;;;1894755;75;20174;-72
2021/09/17 06:25:06;;;;;;;;;;;15.70;99.90;;;;;;1902507;74;20415;-71
2021/09/17 06:27:33;;;;;;;;;;;15.70;99.90;;;;;;1889312;75;20177;-71
2021/09/17 06:30:00;;;;;;;;;;;15.60;99.90;;;;;;1896423;74;20122;-72
2021/09/17 06:32:29;;;;;;;;;;;15.60;99.90;;;;;;1903717;74;20197;-70
2021/09/17 06:34:58;;;;;;;;;;;15.60;99.90;;;;;;1906656;74;20131;-70
2021/09/17 06:37:25;;;;;;;;;;;15.60;99.90;;;;;;1907123;74;20859;-70
2021/09/17 06:39:51;;;;;;;;;;;15.70;99.90;;;;;;1893357;74;20435;-70
2021/09/17 06:42:18;;;;;;;;;;;15.70;99.90;;;;;;1894356;75;20200;-69
2021/09/17 06:44:46;;;;;;;;;;;15.80;99.90;;;;;;1898838;74;20907;-70
2021/09/17 06:47:12;;;;;;;;;;;15.80;99.90;;;;;;1888484;75;20134;-70
2021/09/17 06:49:39;;;;;;;;;;;15.80;99.90;;;;;;1905539;75;20228;-70
2021/09/17 06:52:06;;;;;;;;;;;15.80;99.90;;;;;;1887433;74;20449;-70
2021/09/17 06:54:33;;;;;;;;;;;15.80;99.90;;;;;;1881639;75;20153;-71
2021/09/17 06:57:00;;;;;;;;;;;15.70;99.90;;;;;;1895281;74;20211;-70
2021/09/17 06:59:26;;;;;;;;;;;15.80;99.90;;;;;;1897055;74;20128;-70
2021/09/17 07:01:53;;;;;;;;;;;15.80;99.90;;;;;;1897841;74;20103;-69
2021/09/17 07:04:20;;;;;;;;;;;15.80;99.90;;;;;;1888879;74;20166;-69
2021/09/17 07:06:47;;;;;;;;;;;15.80;99.90;;;;;;1890157;74;20220;-69
2021/09/17 07:09:13;;;;;;;;;;;15.80;99.90;;;;;;1892893;74;20998;-70
2021/09/17 07:11:40;;;;;;;;;;;15.90;99.90;;;;;;1890607;74;20168;-70
2021/09/17 07:14:07;;;;;;;;;;;15.90;99.90;;;;;;1890808;74;20467;-70
2021/09/17 07:16:35;;;;;;;;;;;16.00;99.90;;;;;;1892612;75;20201;-70
2021/09/17 07:19:02;;;;;;;;;;;16.10;99.90;;;;;;1880211;75;20181;-70
2021/09/17 07:21:29;;;;;;;;;;;16.00;99.90;;;;;;1888683;74;20174;-70
2021/09/17 07:23:55;;;;;;;;;;;16.10;99.90;;;;;;1887971;74;20273;-70
2021/09/17 07:26:22;;;;;;;;;;;16.20;99.90;;;;;;1891988;74;20221;-69
2021/09/17 07:28:49;;;;;;;;;;;16.20;99.90;;;;;;1892450;74;20162;-69
2021/09/17 07:31:16;;;;;;;;;;;16.20;99.90;;;;;;1889840;74;20193;-70
2021/09/17 07:33:43;;;;;;;;;;;16.20;99.90;;;;;;1890978;74;20150;-69
2021/09/17 07:36:09;;;;;;;;;;;16.20;99.90;;;;;;1888017;74;20113;-72
2021/09/17 07:38:36;;;;;;;;;;;16.20;99.90;;;;;;1891699;74;20158;-72
2021/09/17 07:41:03;;;;;;;;;;;16.20;99.90;;;;;;1891580;74;20174;-70
2021/09/17 07:43:30;;;;;;;;;;;16.20;99.90;;;;;;1905189;74;21226;-70
2021/09/17 07:45:56;;;;;;;;;;;16.10;99.90;;;;;;1887698;75;20183;-71
2021/09/17 07:48:23;;;;;;;;;;;16.20;99.90;;;;;;1886393;75;20451;-70
2021/09/17 07:50:50;;;;;;;;;;;16.20;99.90;;;;;;1889003;75;20118;-70
2021/09/17 07:53:17;;;;;;;;;;;16.30;99.90;;;;;;1905978;75;20561;-70
2021/09/17 07:55:44;;;;;;;;;;;16.30;99.90;;;;;;1904145;75;20169;-70
2021/09/17 07:58:11;;;;;;;;;;;16.40;99.90;;;;;;1899585;74;20455;-70
2021/09/17 08:00:38;;;;;;;;;;;16.50;99.90;;;;;;1902244;75;20380;-71
2021/09/17 08:03:05;;;;;;;;;;;16.50;99.90;;;;;;1902374;74;20115;-70
2021/09/17 08:05:31;;;;;;;;;;;16.60;99.90;;;;;;1894073;74;20495;-70
2021/09/17 08:07:58;;;;;;;;;;;16.60;99.90;;;;;;1897799;73;20149;-71
2021/09/17 08:10:25;;;;;;;;;;;16.60;99.90;;;;;;1912420;74;20223;-71
2021/09/17 08:12:52;;;;;;;;;;;16.60;99.90;;;;;;1894239;75;20198;-70
2021/09/17 08:15:19;;;;;;;;;;;16.60;99.90;;;;;;1902751;75;20175;-71
2021/09/17 08:17:45;;;;;;;;;;;16.60;99.90;;;;;;1910958;74;20462;-70
2021/09/17 08:20:12;;;;;;;;;;;16.60;99.90;;;;;;1901016;74;20274;-70
2021/09/17 08:22:39;;;;;;;;;;;16.60;99.90;;;;;;1916723;74;20142;-70
2021/09/17 08:25:07;;;;;;;;;;;16.70;99.90;;;;;;1898625;74;20503;-70
2021/09/17 08:27:34;;;;;;;;;;;16.70;99.90;;;;;;1891609;75;21003;-69
2021/09/17 08:30:00;;;;;;;;;;;16.70;99.90;;;;;;1891182;74;20203;-69
2021/09/17 08:32:27;;;;;;;;;;;16.70;99.90;;;;;;1896655;75;20848;-70
2021/09/17 08:34:54;;;;;;;;;;;16.80;99.90;;;;;;1886276;75;20193;-71
2021/09/17 08:37:21;;;;;;;;;;;16.80;99.90;;;;;;1891141;75;20386;-70
2021/09/17 08:39:48;;;;;;;;;;;16.80;99.90;;;;;;1901866;74;20162;-70
2021/09/17 08:42:16;;;;;;;;;;;16.90;99.90;;;;;;1910379;74;20149;-70
2021/09/17 08:44:42;;;;;;;;;;;16.90;99.90;;;;;;1900327;74;20181;-70
2021/09/17 08:47:09;;;;;;;;;;;16.90;99.90;;;;;;1885002;76;20218;-70
2021/09/17 08:49:36;;;;;;;;;;;16.90;99.90;;;;;;1884811;75;20177;-71
2021/09/17 08:52:04;;;;;;;;;;;16.90;99.90;;;;;;1902441;75;20378;-70
2021/09/17 08:54:30;;;;;;;;;;;17.00;99.90;;;;;;1897937;75;20524;-70
2021/09/17 08:56:57;;;;;;;;;;;16.90;99.90;;;;;;1894937;75;20169;-70
2021/09/17 08:59:24;;;;;;;;;;;17.00;99.90;;;;;;1891917;75;20191;-70
2021/09/17 09:01:51;;;;;;;;;;;17.00;99.90;;;;;;1905788;74;20185;-70
2021/09/17 09:04:19;;;;;;;;;;;17.00;99.90;;;;;;1897412;75;20153;-70
2021/09/17 09:06:49;;;;;;;;;;;16.90;99.90;;;;;;1885430;75;20146;-70
2021/09/17 09:09:16;;;;;;;;;;;16.90;99.90;;;;;;1892842;75;20161;-71
2021/09/17 09:11:45;;;;;;;;;;;16.90;99.90;;;;;;1895953;74;20443;-70
2021/09/17 09:14:13;;;;;;;;;;;16.90;99.90;;;;;;1885064;75;20119;-70
2021/09/17 09:16:42;;;;;;;;;;;16.80;99.90;;;;;;1891552;75;20405;-71
2021/09/17 09:19:19;;;;;;;;;;;16.80;99.90;;;;;;1892564;75;20263;-70
2021/09/17 09:21:46;;;;;;;;;;;16.80;99.90;;;;;;1899176;74;20166;-70
2021/09/17 09:24:18;;;;;;;;;;;16.80;99.90;;;;;;1892887;75;20181;-70
2021/09/17 09:26:45;;;;;;;;;;;16.80;99.90;;;;;;1884608;75;20154;-70
2021/09/17 09:29:25;;;;;;;;;;;16.70;99.90;;;;;;1890168;75;20114;-70
2021/09/17 09:31:52;;;;;;;;;;;16.70;99.90;;;;;;1888889;74;20189;-70
2021/09/17 09:34:21;;;;;;;;;;;16.70;99.90;;;;;;1885488;75;20166;-70
2021/09/17 09:36:48;;;;;;;;;;;16.70;99.90;;;;;;1877179;75;20466;-70
2021/09/17 09:39:15;;;;;;;;;;;16.80;99.90;;;;;;1905221;74;20391;-71
2021/09/17 09:41:42;;;;;;;;;;;16.80;99.90;;;;;;1899089;74;20175;-71
2021/09/17 09:44:16;;;;;;;;;;;16.80;99.90;;;;;;1897708;75;20214;-71
2021/09/17 09:46:44;;;;;;;;;;;16.80;99.90;;;;;;1885217;76;20169;-71
2021/09/17 09:49:12;;;;;;;;;;;16.80;99.90;;;;;;1885483;75;20276;-70
2021/09/17 09:51:40;;;;;;;;;;;16.90;99.90;;;;;;1895781;75;20193;-70
2021/09/17 09:54:08;;;;;;;;;;;16.90;99.90;;;;;;1894167;75;20122;-71
2021/09/17 09:56:36;;;;;;;;;;;17.00;99.90;;;;;;1885412;75;20126;-71
2021/09/17 09:59:04;;;;;;;;;;;17.00;99.90;;;;;;1885305;76;20423;-71
2021/09/17 10:01:32;;;;;;;;;;;17.10;99.90;;;;;;1888048;75;20197;-71
2021/09/17 10:03:59;;;;;;;;;;;17.10;99.90;;;;;;1895208;74;20455;-71
2021/09/17 10:06:27;;;;;;;;;;;17.10;99.90;;;;;;1894570;74;20187;-71
2021/09/17 10:08:54;;;;;;;;;;;17.20;99.90;;;;;;1902978;74;20531;-71
2021/09/17 10:11:21;;;;;;;;;;;17.30;99.90;;;;;;1895975;75;20212;-70
2021/09/17 10:13:48;;;;;;;;;;;17.30;99.90;;;;;;1910838;74;20390;-69
2021/09/17 10:16:16;;;;;;;;;;;17.30;99.90;;;;;;1894997;74;20231;-69
2021/09/17 10:18:44;;;;;;;;;;;17.40;99.90;;;;;;1902431;75;20122;-68
2021/09/17 10:21:13;;;;;;;;;;;17.40;99.90;;;;;;1904314;75;20170;-68
2021/09/17 10:23:43;;;;;;;;;;;17.50;99.90;;;;;;1902723;75;20420;-68
2021/09/17 10:26:09;;;;;;;;;;;17.50;99.90;;;;;;1903935;74;20182;-70
2021/09/17 10:28:55;;;;;;;;;;;17.40;99.90;;;;;;1926267;74;20441;-68
2021/09/17 10:31:21;;;;;;;;;;;17.40;99.90;;;;;;1917360;74;20125;-68
2021/09/17 10:33:48;;;;;;;;;;;17.40;99.90;;;;;;1914163;75;20180;-68
2021/09/17 10:36:16;;;;;;;;;;;17.30;99.90;;;;;;1908274;74;20400;-68
2021/09/17 10:38:43;;;;;;;;;;;17.30;99.90;;;;;;1900551;75;20118;-68
2021/09/17 10:41:12;;;;;;;;;;;17.40;99.90;;;;;;1904113;75;20454;-69
2021/09/17 10:43:40;;;;;;;;;;;17.30;99.90;;;;;;1903970;75;20189;-69
2021/09/17 10:46:11;;;;;;;;;;;17.30;99.90;;;;;;1904871;74;20161;-69
2021/09/17 10:48:43;;;;;;;;;;;17.30;99.90;;;;;;1904187;75;20188;-71
2021/09/17 10:51:12;;;;;;;;;;;17.30;99.90;;;;;;1904169;75;20118;-71
2021/09/17 10:53:44;;;;;;;;;;;17.20;99.90;;;;;;1901461;75;20193;-69
2021/09/17 10:56:12;;;;;;;;;;;17.20;99.90;;;;;;1908341;74;20171;-68
2021/09/17 10:58:42;;;;;;;;;;;17.30;99.90;;;;;;1910059;75;20120;-68
2021/09/17 11:01:10;;;;;;;;;;;17.20;99.90;;;;;;1910008;75;20175;-68
2021/09/17 11:03:38;;;;;;;;;;;17.30;99.90;;;;;;1911755;75;20230;-68
2021/09/17 11:06:23;;;;;;;;;;;17.30;99.90;;;;;;1907727;74;20223;-69
2021/09/17 11:08:51;;;;;;;;;;;17.40;99.90;;;;;;1904100;75;20207;-69
2021/09/17 11:11:25;;;;;;;;;;;17.30;99.90;;;;;;1904095;75;20221;-70
2021/09/17 11:13:53;;;;;;;;;;;17.40;99.90;;;;;;1907203;75;20184;-70
2021/09/17 11:16:21;;;;;;;;;;;17.50;99.90;;;;;;1909944;75;20164;-69
2021/09/17 11:18:52;;;;;;;;;;;17.50;99.90;;;;;;1903343;74;20169;-69
2021/09/17 11:21:19;;;;;;;;;;;17.50;99.90;;;;;;1911182;74;20205;-69
2021/09/17 11:23:49;;;;;;;;;;;17.60;99.90;;;;;;1909311;74;20181;-69
2021/09/17 11:26:16;;;;;;;;;;;17.60;99.90;;;;;;1887223;74;20260;-71
2021/09/17 11:28:42;;;;;;;;;;;17.70;99.90;;;;;;1898491;74;20248;-71
2021/09/17 11:31:11;;;;;;;;;;;17.70;99.90;;;;;;1893544;74;20111;-71
2021/09/17 11:33:38;;;;;;;;;;;17.90;99.90;;;;;;1893257;75;20200;-71
2021/09/17 11:36:05;;;;;;;;;;;18.00;99.90;;;;;;1898097;75;20169;-71
2021/09/17 11:38:32;;;;;;;;;;;18.30;99.90;;;;;;1888878;74;20186;-72
2021/09/17 11:40:58;;;;;;;;;;;18.60;99.90;;;;;;1904505;75;20203;-74
2021/09/17 11:43:25;;;;;;;;;;;18.80;99.90;;;;;;1905236;75;20423;-73
2021/09/17 11:45:54;;;;;;;;;;;18.90;99.90;;;;;;1904462;75;20210;-73
2021/09/17 11:48:26;;;;;;;;;;;19.10;99.90;;;;;;1897963;74;20180;-73
2021/09/17 11:50:53;;;;;;;;;;;19.00;99.90;;;;;;1914273;74;20223;-73
2021/09/17 11:53:20;;;;;;;;;;;19.20;99.90;;;;;;1894656;75;20268;-74
2021/09/17 11:55:47;;;;;;;;;;;19.50;99.90;;;;;;1888373;75;20150;-73
2021/09/17 11:58:14;;;;;;;;;;;19.80;99.90;;;;;;1895116;74;20162;-72
2021/09/17 12:00:41;;;;;;;;;;;20.00;99.90;;;;;;1892187;74;20246;-72
2021/09/17 12:03:09;;;;;;;;;;;20.20;99.90;;;;;;1889691;74;20461;-72
2021/09/17 12:05:37;;;;;;;;;;;20.20;99.90;;;;;;1882241;75;20157;-72
2021/09/17 12:08:04;;;;;;;;;;;20.20;99.90;;;;;;1893131;75;20141;-72
2021/09/17 12:10:32;;;;;;;;;;;20.40;99.90;;;;;;1885234;76;20154;-72
2021/09/17 12:13:04;;;;;;;;;;;20.60;99.90;;;;;;1892228;75;20173;-72
2021/09/17 12:15:32;;;;;;;;;;;20.90;99.90;;;;;;1902509;75;20165;-72
2021/09/17 12:18:01;;;;;;;;;;;20.90;99.90;;;;;;1892637;75;20189;-72
2021/09/17 12:20:46;;;;;;;;;;;20.70;99.90;;;;;;1893655;75;20470;-72
2021/09/17 12:23:14;;;;;;;;;;;20.20;99.90;;;;;;1881424;75;20169;-72
2021/09/17 12:25:41;;;;;;;;;;;19.80;99.90;;;;;;1885749;75;20181;-72
2021/09/17 12:28:11;;;;;;;;;;;19.60;99.90;;;;;;1887180;75;20317;-72
2021/09/17 12:30:38;;;;;;;;;;;19.40;99.90;;;;;;1904321;74;20277;-72
2021/09/17 12:33:12;;;;;;;;;;;19.60;99.90;;;;;;1899546;75;20435;-72
2021/09/17 12:35:40;;;;;;;;;;;19.40;99.90;;;;;;1880043;74;20131;-72
2021/09/17 12:38:08;;;;;;;;;;;19.30;99.90;;;;;;1879831;75;20169;-72
2021/09/17 12:40:37;;;;;;;;;;;19.30;99.90;;;;;;1904090;75;20130;-72
2021/09/17 12:43:06;;;;;;;;;;;19.50;99.90;;;;;;1894626;75;20179;-72
2021/09/17 12:45:33;;;;;;;;;;;19.40;99.90;;;;;;1905109;74;20142;-72
2021/09/17 12:48:01;;;;;;;;;;;19.30;99.90;;;;;;1884203;75;20411;-72
2021/09/17 12:50:29;;;;;;;;;;;19.10;99.90;;;;;;1901698;75;20150;-72
2021/09/17 12:52:56;;;;;;;;;;;19.10;99.90;;;;;;1903555;74;20183;-72
2021/09/17 12:55:24;;;;;;;;;;;19.20;99.90;;;;;;1897744;74;20150;-72
2021/09/17 12:58:02;;;;;;;;;;;19.40;99.90;;;;;;1894443;75;20228;-72
2021/09/17 13:00:30;;;;;;;;;;;19.30;99.90;;;;;;1903554;75;20141;-72
2021/09/17 13:02:57;;;;;;;;;;;19.50;99.90;;;;;;1892713;75;20217;-72
2021/09/17 13:05:23;;;;;;;;;;;19.30;99.90;;;;;;1902721;74;20391;-72
2021/09/17 13:07:50;;;;;;;;;;;19.90;99.90;;;;;;1890095;75;20222;-71
2021/09/17 13:10:17;;;;;;;;;;;20.70;99.90;;;;;;1891754;75;20459;-75
2021/09/17 13:12:44;;;;;;;;;;;21.20;99.90;;;;;;1907153;75;20166;-71
2021/09/17 13:15:11;;;;;;;;;;;21.60;99.90;;;;;;1894796;74;21986;-73
2021/09/17 13:17:38;;;;;;;;;;;21.90;99.90;;;;;;1889807;74;20444;-72
2021/09/17 13:20:05;;;;;;;;;;;22.20;99.90;;;;;;1902831;74;20170;-72
2021/09/17 13:22:32;;;;;;;;;;;22.50;99.90;;;;;;1910700;74;20239;-73
2021/09/17 13:25:00;;;;;;;;;;;22.90;99.90;;;;;;1925715;74;20256;-72
2021/09/17 13:27:27;;;;;;;;;;;22.30;99.90;;;;;;1905755;74;20220;-72
2021/09/17 13:29:54;;;;;;;;;;;21.70;99.90;;;;;;1907278;73;20112;-73
2021/09/17 13:32:22;;;;;;;;;;;22.20;99.90;;;;;;1926605;74;20167;-73
2021/09/17 13:34:49;;;;;;;;;;;22.70;99.90;;;;;;1908758;74;20190;-72
2021/09/17 13:37:16;;;;;;;;;;;23.10;99.90;;;;;;1904267;75;20153;-73
2021/09/17 13:39:42;;;;;;;;;;;23.20;99.90;;;;;;1899769;75;20247;-71
2021/09/17 13:42:10;;;;;;;;;;;23.50;99.90;;;;;;1905425;74;20193;-73
2021/09/17 13:44:37;;;;;;;;;;;23.60;99.90;;;;;;1904167;75;20177;-71
2021/09/17 13:47:04;;;;;;;;;;;23.60;99.90;;;;;;1903759;75;20327;-73
2021/09/17 13:49:31;;;;;;;;;;;23.80;99.90;;;;;;1901235;75;20209;-71
2021/09/17 13:51:57;;;;;;;;;;;24.00;99.90;;;;;;1890641;74;20436;-73
2021/09/17 13:54:24;;;;;;;;;;;24.00;99.90;;;;;;1904050;75;20111;-73
2021/09/17 13:56:51;;;;;;;;;;;24.20;99.90;;;;;;1903244;75;20684;-73
2021/09/17 13:59:18;;;;;;;;;;;24.30;99.90;;;;;;1904016;75;20178;-73
2021/09/17 14:01:45;;;;;;;;;;;24.30;99.90;;;;;;1907179;74;20177;-73
2021/09/17 14:04:11;;;;;;;;;;;23.90;99.90;;;;;;1920062;73;21043;-73
2021/09/17 14:06:38;;;;;;;;;;;23.70;99.90;;;;;;1913463;74;20147;-73
2021/09/17 14:09:05;;;;;;;;;;;23.50;99.90;;;;;;1910313;74;20432;-73
2021/09/17 14:11:32;;;;;;;;;;;22.60;99.90;;;;;;1909763;74;20141;-73
2021/09/17 14:13:59;;;;;;;;;;;21.90;99.90;;;;;;1906189;74;20134;-73
2021/09/17 14:16:28;;;;;;;;;;;21.60;99.90;;;;;;1903877;75;20194;-73